Time;durP1;ratioP1;P1;durP2;ratioP2;P2;SDS_P1;SDS_P2;PMS_P1;PMS_P2;Temp;Humidity;BMP_temperature;BMP_pressure;BME280_temperature;BME280_humidity;BME280_pressure;Samples;Min_cycle;Max_cycle;Signal;HPM_P1;HPM_P2
2023/04/23 00:01:01;;;;;;;42.92;22.30;;;6.40;99.90;;;;;;5029939;28;20585;-78
2023/04/23 00:04:35;;;;;;;45.92;23.95;;;6.40;99.90;;;;;;4955070;28;20140;-76
2023/04/23 00:07:32;;;;;;;47.40;24.25;;;6.50;99.90;;;;;;5017569;28;20111;-77
2023/04/23 00:10:53;;;;;;;47.72;25.77;;;6.50;99.90;;;;;;4988787;28;20100;-76
2023/04/23 00:14:12;;;;;;;46.97;24.17;;;6.50;99.90;;;;;;5023620;28;20519;-76
2023/04/23 00:21:37;;;;;;;46.63;23.35;;;6.40;99.90;;;;;;5094694;28;20588;-75
2023/04/23 00:24:48;;;;;;;44.88;22.88;;;6.40;99.90;;;;;;5014059;28;20060;-76
2023/04/23 00:27:37;;;;;;;44.17;23.55;;;6.50;99.90;;;;;;5081259;28;20070;-76
2023/04/23 00:31:03;;;;;;;44.35;23.92;;;6.40;99.90;;;;;;5056083;28;20048;-76
2023/04/23 00:34:12;;;;;;;40.28;22.27;;;6.40;99.90;;;;;;5056065;28;20479;-76
2023/04/23 00:37:05;;;;;;;43.72;23.80;;;6.40;99.90;;;;;;5042981;28;20060;-76
2023/04/23 00:40:26;;;;;;;39.35;22.45;;;7.40;99.90;;;;;;5029811;28;20084;-76
2023/04/23 00:43:32;;;;;;;40.70;22.65;;;6.40;99.90;;;;;;5047097;28;20051;-75
2023/04/23 00:46:39;;;;;;;41.97;22.55;;;6.40;99.90;;;;;;5062101;28;20053;-76
2023/04/23 00:49:30;;;;;;;38.38;22.13;;;6.40;99.90;;;;;;5041766;28;20116;-77
2023/04/23 00:52:21;;;;;;;46.17;24.67;;;6.40;99.90;;;;;;5027898;28;20095;-76
2023/04/23 00:55:56;;;;;;;48.08;25.38;;;6.40;99.90;;;;;;5069508;28;20052;-75
2023/04/23 00:59:25;;;;;;;49.58;26.83;;;6.40;99.90;;;;;;5058120;28;20075;-75
2023/04/23 01:02:42;;;;;;;47.97;25.60;;;6.40;99.90;;;;;;5104008;27;20074;-76
2023/04/23 01:05:48;;;;;;;47.60;27.05;;;7.00;99.90;;;;;;5090050;27;20059;-76
2023/04/23 01:11:45;;;;;;;44.80;25.65;;;6.40;99.90;;;;;;5077835;27;20145;-77
2023/04/23 01:14:35;;;;;;;48.83;26.70;;;6.40;99.90;;;;;;5116728;27;20043;-76
2023/04/23 01:17:31;;;;;;;47.92;25.73;;;6.40;99.90;;;;;;5068816;27;20055;-76
2023/04/23 01:20:23;;;;;;;49.28;27.95;;;6.30;99.90;;;;;;5100544;27;20547;-78
2023/04/23 01:23:02;;;;;;;;;;;6.30;99.90;;;;;;5093339;27;20139;-76
2023/04/23 01:25:58;;;;;;;46.53;25.63;;;6.30;99.90;;;;;;5118882;27;20289;-74
2023/04/23 01:29:12;;;;;;;49.13;26.42;;;6.30;99.90;;;;;;5083665;27;20055;-77
2023/04/23 01:32:14;;;;;;;54.03;27.52;;;6.30;99.90;;;;;;5095363;27;20092;-77
2023/04/23 01:34:47;;;;;;;47.97;27.20;;;6.20;99.90;;;;;;5118691;27;20437;-75
2023/04/23 01:37:56;;;;;;;48.50;25.75;;;6.20;99.90;;;;;;5119978;27;20047;-77
2023/04/23 01:40:45;;;;;;;44.58;26.20;;;6.20;99.90;;;;;;5100805;27;20096;-77
2023/04/23 01:43:20;;;;;;;56.67;27.45;;;6.10;99.90;;;;;;5117998;27;20086;-78
2023/04/23 01:46:28;;;;;;;58.08;28.75;;;6.00;99.90;;;;;;5087384;27;20086;-76
2023/04/23 01:49:32;;;;;;;49.90;27.55;;;6.00;99.90;;;;;;5119204;27;20455;-76
2023/04/23 01:52:41;;;;;;;50.10;25.98;;;6.00;99.90;;;;;;5115463;27;20088;-75
2023/04/23 01:55:57;;;;;;;46.00;25.02;;;6.00;99.90;;;;;;5098221;27;20382;-75
2023/04/23 01:58:54;;;;;;;39.50;22.45;;;5.90;99.90;;;;;;5118345;27;21989;-77
2023/04/23 02:01:27;;;;;;;46.83;23.00;;;5.90;99.90;;;;;;5120018;27;20051;-76
2023/04/23 02:04:28;;;;;;;41.50;22.58;;;5.90;99.90;;;;;;5075377;27;20051;-76
2023/04/23 02:07:35;;;;;;;42.13;22.38;;;5.80;99.90;;;;;;5099731;27;20040;-78
2023/04/23 02:10:30;;;;;;;36.92;21.00;;;5.80;99.90;;;;;;5062541;27;20509;-76
2023/04/23 02:13:09;;;;;;;39.05;21.45;;;5.70;99.90;;;;;;5100793;27;20081;-77
2023/04/23 02:15:43;;;;;;;40.92;22.50;;;5.70;99.90;;;;;;5117938;27;20126;-76
2023/04/23 02:21:03;;;;;;;116.70;22.98;;;5.90;99.90;;;;;;5079203;28;20087;-77
2023/04/23 02:23:37;;;;;;;191.88;26.05;;;5.60;99.90;;;;;;5051978;28;20056;-77
2023/04/23 02:26:50;;;;;;;323.77;30.15;;;5.60;99.90;;;;;;5078570;28;20607;-75
2023/04/23 02:29:50;;;;;;;270.95;27.75;;;5.50;99.90;;;;;;5029923;28;20068;-75
2023/04/23 02:32:57;;;;;;;116.10;20.83;;;5.40;99.90;;;;;;5036581;28;20122;-76
2023/04/23 02:38:40;;;;;;;141.82;22.55;;;5.70;99.90;;;;;;5022674;28;20080;-76
2023/04/23 02:41:29;;;;;;;237.82;28.45;;;5.40;99.90;;;;;;5022020;28;20097;-77
2023/04/23 02:44:30;;;;;;;178.30;26.40;;;4.20;99.90;;;;;;5010512;28;20131;-76
2023/04/23 02:47:24;;;;;;;157.18;27.58;;;7.10;99.90;;;;;;5021107;28;20637;-75
2023/04/23 02:50:15;;;;;;;247.65;29.05;;;5.70;99.90;;;;;;5006618;28;20060;-76
2023/04/23 02:53:02;;;;;;;300.92;33.85;;;6.10;99.90;;;;;;5022897;28;20101;-75
2023/04/23 02:56:00;;;;;;;130.32;25.50;;;5.80;99.90;;;;;;5036869;28;20668;-78
2023/04/23 02:58:56;;;;;;;61.90;26.23;;;5.80;99.90;;;;;;5013020;28;20056;-75
2023/04/23 03:01:52;;;;;;;330.30;33.25;;;5.80;99.90;;;;;;5063751;27;20059;-75
2023/04/23 03:05:06;;;;;;;420.98;39.45;;;5.30;99.90;;;;;;5085328;27;20073;-75
2023/04/23 03:07:59;;;;;;;373.63;39.75;;;4.90;99.90;;;;;;5065145;27;20059;-76
2023/04/23 03:10:51;;;;;;;203.55;32.95;;;5.90;99.90;;;;;;5094090;27;20059;-78
2023/04/23 03:13:42;;;;;;;216.43;33.97;;;6.00;99.90;;;;;;5112816;27;20046;-77
2023/04/23 03:16:15;;;;;;;92.07;28.88;;;6.00;99.90;;;;;;5111468;27;20058;-76
2023/04/23 03:19:06;;;;;;;199.02;34.80;;;6.00;99.90;;;;;;5113693;27;20147;-79
2023/04/23 03:22:12;;;;;;;240.52;38.90;;;6.10;99.90;;;;;;5113203;27;20499;-77
2023/04/23 03:25:18;;;;;;;119.05;35.03;;;6.10;99.90;;;;;;5083339;27;20050;-76
2023/04/23 03:28:17;;;;;;;174.52;38.28;;;6.10;99.90;;;;;;5062076;27;20062;-77
2023/04/23 03:31:31;;;;;;;137.88;36.33;;;6.20;99.90;;;;;;5009171;28;20239;-78
2023/04/23 03:37:24;;;;;;;91.28;35.95;;;6.20;99.90;;;;;;5060493;28;20475;-77
2023/04/23 03:40:13;;;;;;;95.50;36.55;;;6.20;99.90;;;;;;5070639;28;20214;-76
2023/04/23 03:43:00;;;;;;;112.70;37.92;;;6.30;99.90;;;;;;5040765;28;20837;-75
2023/04/23 03:46:07;;;;;;;101.72;37.70;;;6.30;99.90;;;;;;5038316;28;20867;-76
2023/04/23 03:49:06;;;;;;;138.13;39.13;;;6.30;99.90;;;;;;5055440;28;20104;-75
2023/04/23 03:52:10;;;;;;;108.03;39.95;;;6.40;99.90;;;;;;5042887;28;20140;-75
2023/04/23 03:55:28;;;;;;;128.98;43.55;;;6.40;99.90;;;;;;5056395;28;20071;-76
2023/04/23 03:58:17;;;;;;;103.15;41.05;;;6.50;99.90;;;;;;5019078;28;20641;-76
2023/04/23 04:01:27;;;;;;;107.55;43.28;;;6.50;99.90;;;;;;5053162;28;20117;-76
2023/04/23 04:04:32;;;;;;;109.40;44.58;;;6.60;99.90;;;;;;5111963;27;20088;-77
2023/04/23 04:07:53;;;;;;;112.35;47.20;;;6.70;99.90;;;;;;5094367;27;20055;-76
2023/04/23 04:11:01;;;;;;;117.18;45.88;;;6.70;99.90;;;;;;5096088;28;20132;-79
2023/04/23 04:14:07;;;;;;;116.72;48.03;;;6.80;99.90;;;;;;5111820;28;20038;-77
2023/04/23 04:17:25;;;;;;;126.30;48.60;;;6.80;99.90;;;;;;5113542;28;20067;-77
2023/04/23 04:20:15;;;;;;;124.53;48.20;;;6.90;99.90;;;;;;5096359;28;20051;-75
2023/04/23 04:23:33;;;;;;;125.40;49.70;;;7.00;99.90;;;;;;5097975;28;20752;-75
2023/04/23 04:26:33;;;;;;;119.80;48.63;;;8.20;99.90;;;;;;5100998;28;20869;-77
2023/04/23 04:29:20;;;;;;;134.57;52.03;;;7.00;99.90;;;;;;5092809;28;20101;-76
2023/04/23 04:32:10;;;;;;;147.15;54.00;;;7.10;99.90;;;;;;5092422;27;20050;-76
2023/04/23 04:35:26;;;;;;;130.23;50.38;;;7.20;99.90;;;;;;5112595;28;20054;-78
2023/04/23 04:38:47;;;;;;;149.38;53.05;;;7.20;99.90;;;;;;5014302;28;20042;-76
2023/04/23 04:41:40;;;;;;;137.38;52.17;;;8.00;99.90;;;;;;5031382;28;20060;-77
2023/04/23 04:44:26;;;;;;;122.45;50.40;;;7.30;99.90;;;;;;5012262;28;20623;-77
2023/04/23 04:47:28;;;;;;;128.60;51.88;;;7.10;99.90;;;;;;5047530;28;20068;-77
2023/04/23 04:53:07;;;;;;;123.45;48.33;;;7.40;99.90;;;;;;5048433;28;20122;-77
2023/04/23 04:56:35;;;;;;;128.65;51.67;;;7.50;99.90;;;;;;5015487;28;20104;-76
2023/04/23 05:02:39;;;;;;;112.35;47.78;;;7.60;99.90;;;;;;4986081;28;20049;-77
2023/04/23 05:05:43;;;;;;;125.97;49.65;;;6.70;99.90;;;;;;5016116;28;20068;-76
2023/04/23 05:08:47;;;;;;;112.90;48.03;;;7.60;99.90;;;;;;4999150;28;20065;-75
2023/04/23 05:11:37;;;;;;;120.70;49.65;;;7.50;99.90;;;;;;5012914;28;20061;-75
2023/04/23 05:14:42;;;;;;;117.18;49.03;;;7.70;99.90;;;;;;5014536;28;20076;-78
2023/04/23 05:17:52;;;;;;;122.72;48.88;;;7.70;99.90;;;;;;4970892;28;20045;-76
2023/04/23 05:21:03;;;;;;;119.55;49.72;;;7.80;99.90;;;;;;5011995;28;20057;-77
2023/04/23 05:24:14;;;;;;;124.43;50.03;;;7.80;99.90;;;;;;5023986;28;20080;-79
2023/04/23 05:27:13;;;;;;;116.10;48.45;;;7.90;99.90;;;;;;5043617;28;20389;-76
2023/04/23 05:30:31;;;;;;;122.45;50.70;;;7.90;99.90;;;;;;5059483;28;20120;-78
2023/04/23 05:33:31;;;;;;;112.47;47.00;;;8.00;99.90;;;;;;5057319;28;20143;-77
2023/04/23 05:37:05;;;;;;;103.05;45.47;;;8.00;99.90;;;;;;5080966;27;20047;-76
2023/04/23 05:39:48;;;;;;;105.18;46.45;;;8.00;99.90;;;;;;5079645;27;20062;-74
2023/04/23 05:42:51;;;;;;;101.10;44.88;;;8.10;99.90;;;;;;5047773;27;20055;-75
2023/04/23 05:48:36;;;;;;;104.95;45.88;;;8.20;99.90;;;;;;5053866;28;20044;-75
2023/04/23 05:51:58;;;;;;;96.32;44.03;;;8.20;99.90;;;;;;5057603;28;20048;-79
2023/04/23 05:54:27;;;;;;;104.70;45.78;;;6.90;99.90;;;;;;5055836;28;20155;-80
2023/04/23 05:57:12;;;;;;;99.78;44.60;;;8.40;99.90;;;;;;5028830;28;20055;-80
2023/04/23 05:59:38;;;;;;;99.70;44.47;;;8.40;99.90;;;;;;5036050;28;20590;-80
2023/04/23 06:02:04;;;;;;;100.65;45.13;;;8.40;99.90;;;;;;5037860;28;20317;-79
2023/04/23 06:04:31;;;;;;;100.07;44.17;;;8.50;99.90;;;;;;5029054;28;20496;-78
2023/04/23 06:07:00;;;;;;;92.38;42.15;;;8.50;99.90;;;;;;5043158;28;20044;-80
2023/04/23 06:09:26;;;;;;;92.00;44.05;;;8.60;99.90;;;;;;5040359;28;20053;-79
2023/04/23 06:14:59;;;;;;;89.60;43.15;;;8.80;99.90;;;;;;5027248;28;20045;-79
2023/04/23 06:17:25;;;;;;;93.13;41.60;;;8.80;99.90;;;;;;5055616;28;20512;-78
2023/04/23 06:19:51;;;;;;;89.93;42.40;;;8.90;99.90;;;;;;5049516;27;20059;-77
2023/04/23 06:22:37;;;;;;;84.28;40.17;;;8.80;99.90;;;;;;5079264;27;20083;-79
2023/04/23 06:25:07;;;;;;;86.45;39.90;;;8.90;99.90;;;;;;5096209;27;20082;-78
2023/04/23 06:27:43;;;;;;;83.25;39.22;;;9.00;99.90;;;;;;5058621;27;20059;-79
2023/04/23 06:30:27;;;;;;;;;;;7.90;99.90;;;;;;5115545;27;20048;-80
2023/04/23 06:32:53;;;;;;;81.25;38.40;;;9.10;99.90;;;;;;5112667;27;20278;-75
2023/04/23 06:35:19;;;;;;;80.85;37.28;;;9.10;99.90;;;;;;5112383;27;20047;-76
2023/04/23 06:38:10;;;;;;;76.22;37.75;;;10.10;99.90;;;;;;5076837;27;20414;-76
2023/04/23 06:40:41;;;;;;;79.93;38.58;;;10.00;99.90;;;;;;5066124;27;20055;-76
2023/04/23 06:43:08;;;;;;;83.72;39.60;;;9.40;99.90;;;;;;5064125;27;20043;-74
2023/04/23 06:45:47;;;;;;;75.78;38.90;;;9.40;99.90;;;;;;5093081;27;20134;-73
2023/04/23 06:51:07;;;;;;;;;;;9.60;99.90;;;;;;5115788;27;20043;-75
2023/04/23 06:53:48;;;;;;;69.47;36.15;;;9.70;99.90;;;;;;5113529;27;20275;-74
2023/04/23 06:56:35;;;;;;;71.45;36.28;;;9.80;99.90;;;;;;5093116;27;20051;-75
2023/04/23 06:59:21;;;;;;;69.85;36.20;;;10.00;99.90;;;;;;5096779;27;20052;-75
2023/04/23 07:02:37;;;;;;;69.68;36.50;;;10.10;99.90;;;;;;5101264;27;20042;-79
2023/04/23 07:05:12;;;;;;;67.85;36.50;;;10.20;99.90;;;;;;5095123;27;20155;-81
2023/04/23 07:08:01;;;;;;;63.57;35.50;;;10.30;99.90;;;;;;5082533;27;20047;-80
2023/04/23 07:10:27;;;;;;;65.70;35.45;;;10.40;99.90;;;;;;5095456;27;20043;-78
2023/04/23 07:16:21;;;;;;;62.58;35.03;;;10.70;99.90;;;;;;5112649;27;20083;-80
2023/04/23 07:18:53;;;;;;;56.92;33.42;;;10.90;99.90;;;;;;5058226;27;20116;-78
2023/04/23 07:21:37;;;;;;;54.53;33.10;;;11.10;99.90;;;;;;5065840;27;20957;-79
2023/04/23 07:24:05;;;;;;;54.95;32.05;;;11.20;99.90;;;;;;5113839;27;20096;-80
2023/04/23 07:26:55;;;;;;;57.10;32.35;;;11.40;99.90;;;;;;5094162;27;20058;-79
2023/04/23 07:29:51;;;;;;;46.53;29.45;;;11.50;99.90;;;;;;5095340;27;20130;-82
2023/04/23 07:32:28;;;;;;;49.90;30.55;;;10.80;99.90;;;;;;5058009;28;20128;-79
2023/04/23 07:35:22;;;;;;;43.70;29.30;;;11.80;99.90;;;;;;5003888;28;20085;-78
2023/04/23 07:38:21;;;;;;;46.20;29.52;;;11.90;99.90;;;;;;4999150;28;20069;-80
2023/04/23 07:40:53;;;;;;;43.72;29.73;;;12.20;99.90;;;;;;5017478;28;20060;-81
2023/04/23 07:43:18;;;;;;;40.10;27.60;;;12.40;99.90;;;;;;4998131;28;20033;-76
2023/04/23 07:46:25;;;;;;;39.45;26.65;;;12.30;99.90;;;;;;5014880;28;20177;-77
2023/04/23 07:49:27;;;;;;;37.70;25.40;;;12.40;99.90;;;;;;4969148;28;20539;-76
2023/04/23 07:52:25;;;;;;;37.13;26.75;;;12.60;99.90;;;;;;5018553;28;20080;-75
2023/04/23 07:55:11;;;;;;;35.60;23.98;;;12.70;99.90;;;;;;5015003;28;20111;-76
2023/04/23 07:58:13;;;;;;;34.03;23.48;;;12.80;99.90;;;;;;5015721;28;20676;-75
2023/04/23 08:00:49;;;;;;;33.90;23.63;;;12.90;99.90;;;;;;5015481;28;20118;-75
2023/04/23 08:03:20;;;;;;;33.22;23.25;;;13.00;99.90;;;;;;5037689;28;20599;-74
2023/04/23 08:05:47;;;;;;;33.10;23.52;;;13.10;99.90;;;;;;5059533;27;20059;-74
2023/04/23 08:08:13;;;;;;;32.30;23.25;;;13.10;99.90;;;;;;5065612;27;20052;-74
2023/04/23 08:10:39;;;;;;;33.10;22.63;;;12.10;99.90;;;;;;5082304;27;20070;-74
2023/04/23 08:13:13;;;;;;;30.90;21.50;;;13.20;99.90;;;;;;5068959;27;20116;-73
2023/04/23 08:15:43;;;;;;;31.92;21.83;;;13.40;99.90;;;;;;5100839;27;20051;-72
2023/04/23 08:18:13;;;;;;;28.88;21.90;;;13.60;99.90;;;;;;5084123;27;20305;-74
2023/04/23 08:20:39;;;;;;;28.70;21.15;;;13.20;99.90;;;;;;5068383;27;20051;-73
2023/04/23 08:23:09;;;;;;;28.23;20.83;;;14.10;99.90;;;;;;5079878;27;20070;-74
2023/04/23 08:25:42;;;;;;;27.52;19.35;;;14.30;99.90;;;;;;5096824;27;20054;-74
2023/04/23 08:28:16;;;;;;;25.63;19.17;;;14.50;99.90;;;;;;5080795;27;20105;-74
2023/04/23 08:30:50;;;;;;;25.17;19.10;;;15.50;99.90;;;;;;5050267;28;20141;-77
2023/04/23 08:33:44;;;;;;;23.48;18.63;;;14.90;99.90;;;;;;5082155;27;20405;-77
2023/04/23 08:36:45;;;;;;;25.97;18.20;;;15.30;99.90;;;;;;5114711;27;20078;-74
2023/04/23 08:39:41;;;;;;;24.35;17.58;;;15.60;99.90;;;;;;5097388;28;20054;-74
2023/04/23 08:42:59;;;;;;;22.67;17.17;;;15.70;99.90;;;;;;5096600;27;20090;-74
2023/04/23 08:45:51;;;;;;;22.13;16.40;;;16.20;99.90;;;;;;5031196;27;20593;-75
2023/04/23 08:48:32;;;;;;;22.60;17.42;;;16.40;99.90;;;;;;5078962;27;20058;-74
2023/04/23 08:51:51;;;;;;;22.00;16.98;;;16.20;99.90;;;;;;5088835;27;20266;-74
2023/04/23 08:54:47;;;;;;;21.52;17.00;;;16.70;99.90;;;;;;5096587;27;20048;-75
2023/04/23 08:57:59;;;;;;;19.80;15.40;;;16.70;99.90;;;;;;5100180;27;20043;-76
2023/04/23 09:00:38;;;;;;;19.90;15.32;;;16.50;99.90;;;;;;5051675;27;20053;-73
2023/04/23 09:03:33;;;;;;;18.42;15.30;;;16.40;99.90;;;;;;5089222;27;20058;-74
2023/04/23 09:06:28;;;;;;;18.70;15.43;;;16.40;99.90;;;;;;5101508;27;20081;-73
2023/04/23 09:09:08;;;;;;;18.65;14.73;;;16.40;99.90;;;;;;5047380;27;21222;-73
2023/04/23 09:11:46;;;;;;;19.73;15.85;;;16.40;99.90;;;;;;5098649;27;20487;-74
2023/04/23 09:14:51;;;;;;;18.55;14.80;;;16.70;99.90;;;;;;5116955;27;20066;-75
2023/04/23 09:17:41;;;;;;;19.08;14.88;;;16.90;99.90;;;;;;5094010;27;20401;-74
2023/04/23 09:20:10;;;;;;;17.35;14.02;;;17.20;99.90;;;;;;5053992;27;20056;-75
2023/04/23 09:22:58;;;;;;;17.70;13.95;;;18.40;99.90;;;;;;5068462;28;20098;-74
2023/04/23 09:25:57;;;;;;;18.73;13.35;;;17.20;99.90;;;;;;5063596;28;20060;-75
2023/04/23 09:29:04;;;;;;;17.48;13.85;;;17.10;99.90;;;;;;5052534;28;20081;-76
2023/04/23 09:32:07;;;;;;;15.25;12.20;;;17.00;99.90;;;;;;5046218;28;20507;-76
2023/04/23 09:34:54;;;;;;;17.00;12.65;;;17.00;99.90;;;;;;5041327;28;20091;-77
2023/04/23 09:38:29;;;;;;;14.65;12.32;;;17.30;99.90;;;;;;5072293;28;20127;-75
2023/04/23 09:41:48;;;;;;;15.02;11.15;;;17.60;99.90;;;;;;4970284;28;20066;-77
2023/04/23 09:45:10;;;;;;;15.20;11.27;;;17.90;99.90;;;;;;5071454;28;20062;-75
2023/04/23 09:47:57;;;;;;;13.38;11.30;;;18.10;99.90;;;;;;5070730;28;20109;-76
2023/04/23 09:50:54;;;;;;;14.75;11.75;;;18.40;99.90;;;;;;5029499;28;20056;-76
2023/04/23 09:54:25;;;;;;;15.57;11.48;;;18.40;99.90;;;;;;5075959;27;20538;-75
2023/04/23 09:57:47;;;;;;;14.77;11.55;;;18.70;99.90;;;;;;5116451;27;20088;-74
2023/04/23 10:00:50;;;;;;;13.10;10.60;;;19.00;99.90;;;;;;5111669;27;20050;-75
2023/04/23 10:04:03;;;;;;;14.25;10.77;;;19.00;99.90;;;;;;5114474;27;20085;-75
2023/04/23 10:06:38;;;;;;;14.60;10.75;;;18.90;99.90;;;;;;5112873;27;20043;-75
2023/04/23 10:09:29;;;;;;;12.52;10.45;;;19.10;99.90;;;;;;5066965;27;20054;-77
2023/04/23 10:12:46;;;;;;;14.82;10.60;;;19.10;99.90;;;;;;5116817;27;20401;-76
2023/04/23 10:15:56;;;;;;;15.02;11.10;;;19.30;99.90;;;;;;5108269;27;20051;-76
2023/04/23 10:18:25;;;;;;;;;;;19.40;99.90;;;;;;5082430;27;20116;-76
2023/04/23 10:21:08;;;;;;;12.20;9.63;;;19.20;99.90;;;;;;5099381;27;19984;-76
2023/04/23 10:23:52;;;;;;;14.88;8.90;;;19.20;99.90;;;;;;5065344;27;20048;-75
2023/04/23 10:26:39;;;;;;;13.77;10.50;;;19.40;99.90;;;;;;5083815;27;20059;-77
2023/04/23 10:29:13;;;;;;;11.40;9.43;;;19.50;99.90;;;;;;5068459;27;20039;-77
2023/04/23 10:32:05;;;;;;;13.43;9.93;;;19.70;99.90;;;;;;5100446;27;20047;-75
2023/04/23 10:35:17;;;;;;;12.75;9.30;;;19.90;99.90;;;;;;5116102;27;20929;-76
2023/04/23 10:38:00;;;;;;;16.05;9.23;;;20.10;99.90;;;;;;5097185;27;20219;-77
2023/04/23 10:41:08;;;;;;;12.32;9.70;;;20.30;99.90;;;;;;5102475;27;20831;-75
2023/04/23 10:43:54;;;;;;;10.88;8.93;;;20.60;99.90;;;;;;5100968;27;20405;-76
2023/04/23 10:46:39;;;;;;;12.43;9.40;;;20.40;99.90;;;;;;5061360;28;20084;-74
2023/04/23 10:49:22;;;;;;;10.63;8.80;;;20.20;99.90;;;;;;5061103;28;20473;-74
2023/04/23 10:52:03;;;;;;;11.52;8.68;;;20.20;99.90;;;;;;5060552;28;20040;-76
2023/04/23 10:54:59;;;;;;;12.07;8.63;;;20.30;99.90;;;;;;5043995;28;20097;-76
2023/04/23 10:58:15;;;;;;;14.27;9.32;;;20.00;99.90;;;;;;5072200;28;20039;-75
2023/04/23 11:00:52;;;;;;;11.98;9.13;;;19.60;99.90;;;;;;5047709;28;20078;-76
2023/04/23 11:03:41;;;;;;;13.18;9.20;;;19.10;99.90;;;;;;5073550;28;20081;-76
2023/04/23 11:06:08;;;;;;;13.93;8.98;;;18.80;99.90;;;;;;5043800;28;20502;-85
2023/04/23 11:08:50;;;;;;;11.80;8.93;;;18.70;99.90;;;;;;5044124;28;20120;-75
2023/04/23 11:11:43;;;;;;;13.00;8.30;;;18.70;99.90;;;;;;5042303;28;20062;-75
2023/04/23 11:14:14;;;;;;;10.68;7.95;;;18.60;99.90;;;;;;5044348;28;20052;-75
2023/04/23 11:16:47;;;;;;;10.15;8.20;;;18.30;99.90;;;;;;5038257;27;20089;-74
2023/04/23 11:19:24;;;;;;;11.25;7.72;;;18.20;99.90;;;;;;5082393;27;20051;-74
2023/04/23 11:22:23;;;;;;;12.27;8.20;;;18.10;99.90;;;;;;5098640;27;20410;-75
2023/04/23 11:25:24;;;;;;;11.55;6.95;;;18.20;99.90;;;;;;5119117;27;20030;-75
2023/04/23 11:28:14;;;;;;;15.60;7.53;;;18.30;99.90;;;;;;5068770;27;20120;-76
2023/04/23 11:30:42;;;;;;;11.25;6.90;;;18.50;99.90;;;;;;5071964;27;20082;-74
2023/04/23 11:33:10;;;;;;;9.80;6.13;;;18.40;99.90;;;;;;5054419;27;20043;-75
2023/04/23 11:35:45;;;;;;;9.75;5.95;;;18.30;99.90;;;;;;5084356;27;20167;-75
2023/04/23 11:38:20;;;;;;;8.88;5.97;;;18.00;99.90;;;;;;5100869;27;20130;-74
2023/04/23 11:41:06;;;;;;;9.23;6.30;;;17.70;99.90;;;;;;5089881;27;20047;-74
2023/04/23 11:43:36;;;;;;;10.25;5.32;;;17.50;99.90;;;;;;5095786;27;20039;-76
2023/04/23 11:46:08;;;;;;;11.23;5.97;;;17.50;99.90;;;;;;5081950;27;20073;-74
2023/04/23 11:48:43;;;;;;;8.05;5.75;;;17.40;99.90;;;;;;5105428;27;20043;-74
2023/04/23 11:51:11;;;;;;;9.45;5.65;;;17.40;99.90;;;;;;5097713;27;20050;-73
2023/04/23 11:53:45;;;;;;;8.68;5.28;;;17.30;99.90;;;;;;5094086;27;20043;-74
2023/04/23 11:56:11;;;;;;;11.20;4.60;;;17.20;99.90;;;;;;5099378;27;20062;-73
2023/04/23 11:58:41;;;;;;;9.32;4.53;;;17.10;99.90;;;;;;5112804;27;20116;-72
2023/04/23 12:01:07;;;;;;;9.52;4.85;;;17.10;99.90;;;;;;5077197;27;20050;-77
2023/04/23 12:03:39;;;;;;;9.13;3.88;;;17.20;99.90;;;;;;5113670;27;20055;-73
2023/04/23 12:06:05;;;;;;;8.10;3.60;;;17.70;99.90;;;;;;5079014;28;20058;-75
2023/04/23 12:08:42;;;;;;;8.07;3.15;;;18.20;99.90;;;;;;5068317;28;20047;-75
2023/04/23 12:11:18;;;;;;;6.80;2.72;;;18.60;99.90;;;;;;5113923;27;20042;-74
2023/04/23 12:13:45;;;;;;;8.77;2.35;;;18.70;99.90;;;;;;5061958;27;20477;-74
2023/04/23 12:16:15;;;;;;;7.53;2.70;;;18.90;99.90;;;;;;5098081;28;20108;-74
2023/04/23 12:18:43;;;;;;;8.02;2.67;;;19.10;99.90;;;;;;5082481;27;20047;-74
2023/04/23 12:21:11;;;;;;;7.35;2.45;;;19.50;99.90;;;;;;5067398;27;20087;-75
2023/04/23 12:23:45;;;;;;;4.22;2.00;;;19.70;99.90;;;;;;5065288;27;20088;-76
2023/04/23 12:26:14;;;;;;;6.20;2.25;;;20.10;99.90;;;;;;5079207;27;20099;-75
2023/04/23 12:29:05;;;;;;;6.05;2.10;;;20.40;99.90;;;;;;5082112;27;20046;-74
2023/04/23 12:31:46;;;;;;;6.50;2.00;;;20.60;99.90;;;;;;5049154;27;20521;-76
2023/04/23 12:34:22;;;;;;;7.60;1.70;;;20.90;99.90;;;;;;5117072;27;20069;-74
2023/04/23 12:36:55;;;;;;;5.38;2.00;;;21.50;99.90;;;;;;5099272;27;20131;-74
2023/04/23 12:39:25;;;;;;;5.03;1.70;;;21.10;99.90;;;;;;5098856;27;20048;-74
2023/04/23 12:42:01;;;;;;;7.95;2.38;;;21.10;99.90;;;;;;5086822;27;20160;-74
2023/04/23 12:44:34;;;;;;;7.53;1.85;;;21.20;99.90;;;;;;5099664;27;20051;-74
2023/04/23 12:47:10;;;;;;;7.15;2.50;;;21.20;99.90;;;;;;5098684;27;20047;-74
2023/04/23 12:49:39;;;;;;;6.18;2.08;;;21.10;99.90;;;;;;5044266;28;20134;-74
2023/04/23 12:52:07;;;;;;;6.15;1.95;;;21.10;99.90;;;;;;5045386;28;20122;-75
2023/04/23 12:54:38;;;;;;;5.78;2.13;;;21.20;99.90;;;;;;5042941;28;20063;-75
2023/04/23 12:57:06;;;;;;;7.85;1.95;;;21.00;99.90;;;;;;5061616;28;20051;-76
2023/04/23 12:59:42;;;;;;;7.68;2.22;;;21.10;99.90;;;;;;5064612;28;20067;-75
2023/04/23 13:02:16;;;;;;;9.93;2.15;;;21.10;99.90;;;;;;5042640;28;20094;-76
2023/04/23 13:04:46;;;;;;;5.65;1.95;;;20.90;99.90;;;;;;5060250;28;20153;-75
2023/04/23 13:07:12;;;;;;;7.25;2.45;;;20.80;99.90;;;;;;5059008;28;20044;-75
2023/04/23 13:09:49;;;;;;;3.33;1.85;;;20.70;99.90;;;;;;5059092;28;20142;-75
2023/04/23 13:12:20;;;;;;;4.82;1.80;;;20.50;99.90;;;;;;5076752;28;20040;-75
2023/04/23 13:14:47;;;;;;;6.22;1.70;;;20.40;99.90;;;;;;5043040;28;20059;-76
2023/04/23 13:17:13;;;;;;;7.03;1.90;;;20.90;99.90;;;;;;5042266;28;20154;-74
2023/04/23 13:19:40;;;;;;;6.63;1.88;;;20.20;99.90;;;;;;5051277;27;20043;-74
2023/04/23 13:22:11;;;;;;;6.53;2.25;;;20.20;99.90;;;;;;5099921;27;20063;-74
2023/04/23 13:24:37;;;;;;;8.80;2.10;;;20.30;99.90;;;;;;5114345;27;20098;-74
2023/04/23 13:27:03;;;;;;;8.65;2.40;;;20.20;99.90;;;;;;5097110;27;20155;-75
2023/04/23 13:29:29;;;;;;;7.88;2.17;;;20.10;99.90;;;;;;5085565;27;20043;-73
2023/04/23 13:31:57;;;;;;;7.22;2.28;;;20.00;99.90;;;;;;5095613;27;20088;-73
2023/04/23 13:34:24;;;;;;;8.25;2.85;;;20.00;99.90;;;;;;5068793;27;20104;-72
2023/04/23 13:36:51;;;;;;;5.28;2.10;;;20.70;99.90;;;;;;5065195;27;20078;-74
2023/04/23 13:39:19;;;;;;;9.85;3.20;;;19.80;99.90;;;;;;5053786;28;20048;-72
2023/04/23 13:41:51;;;;;;;7.20;2.30;;;19.80;99.90;;;;;;5023691;28;20143;-73
2023/04/23 13:44:19;;;;;;;7.50;3.15;;;19.80;99.90;;;;;;5020669;28;20063;-73
2023/04/23 13:46:48;;;;;;;4.82;2.25;;;20.00;99.90;;;;;;5006499;28;20057;-73
2023/04/23 13:49:19;;;;;;;6.13;2.03;;;20.20;99.90;;;;;;5023346;28;20056;-73
2023/04/23 13:52:03;;;;;;;7.00;2.10;;;20.20;99.90;;;;;;5040335;28;20471;-74
2023/04/23 13:54:28;;;;;;;8.82;2.10;;;20.10;99.90;;;;;;5022554;28;20063;-75
2023/04/23 13:56:56;;;;;;;5.28;2.00;;;20.10;99.90;;;;;;5039972;28;20048;-73
2023/04/23 13:59:25;;;;;;;6.25;2.08;;;20.10;99.90;;;;;;5025905;28;20472;-73
2023/04/23 14:01:52;;;;;;;6.88;2.25;;;20.10;99.90;;;;;;5040140;28;20122;-73
2023/04/23 14:04:25;;;;;;;4.05;1.73;;;20.10;99.90;;;;;;5040916;28;20055;-73
2023/04/23 14:06:51;;;;;;;6.90;1.73;;;20.10;99.90;;;;;;5009163;28;20485;-73
2023/04/23 14:09:22;;;;;;;5.72;1.85;;;20.10;99.90;;;;;;5049489;27;20049;-74
2023/04/23 14:11:48;;;;;;;5.60;1.73;;;20.20;99.90;;;;;;5067098;27;20481;-73
2023/04/23 14:14:26;;;;;;;4.47;1.70;;;20.10;99.90;;;;;;5083110;27;20039;-75
2023/04/23 14:16:55;;;;;;;6.32;2.00;;;20.00;99.90;;;;;;5098827;27;20051;-72
2023/04/23 14:19:34;;;;;;;5.18;1.98;;;19.90;99.90;;;;;;5084899;27;20051;-74
2023/04/23 14:22:03;;;;;;;6.30;2.05;;;19.70;99.90;;;;;;5088288;27;20160;-73
2023/04/23 14:24:43;;;;;;;5.82;1.60;;;19.60;99.90;;;;;;5087133;27;20043;-72
2023/04/23 14:27:12;;;;;;;6.57;1.80;;;19.50;99.90;;;;;;5079806;27;20161;-75
2023/04/23 14:30:01;;;;;;;5.90;1.60;;;19.30;99.90;;;;;;5085012;27;20051;-72
2023/04/23 14:32:27;;;;;;;7.05;2.00;;;19.20;99.90;;;;;;5096784;27;20189;-74
2023/04/23 14:35:11;;;;;;;4.60;1.65;;;19.00;99.90;;;;;;5077258;27;20062;-72
2023/04/23 14:37:44;;;;;;;8.73;2.00;;;18.90;99.90;;;;;;5111166;27;20120;-72
2023/04/23 14:40:18;;;;;;;8.02;2.15;;;18.70;99.90;;;;;;5077162;27;20067;-72
2023/04/23 14:42:48;;;;;;;5.90;1.80;;;18.80;99.90;;;;;;5111669;27;20056;-72
2023/04/23 14:45:17;;;;;;;5.72;1.75;;;18.80;99.90;;;;;;5081338;27;20050;-72
2023/04/23 14:47:46;;;;;;;5.75;1.70;;;18.90;99.90;;;;;;5063459;27;20050;-72
2023/04/23 14:50:16;;;;;;;7.65;1.67;;;19.10;99.90;;;;;;5094712;27;20043;-73
2023/04/23 14:52:48;;;;;;;6.30;1.90;;;19.20;99.90;;;;;;5095542;27;20181;-72